AST,Max TemperatureF,Mean TemperatureF,Min TemperatureF,Max Dew PointF,MeanDew PointF,Min DewpointF,Max Humidity, Mean Humidity, Min Humidity, Max Sea Level PressureIn, Mean Sea Level PressureIn, Min Sea Level PressureIn, Max VisibilityMiles, Mean VisibilityMiles, Min VisibilityMiles, Max Wind SpeedMPH, Mean Wind SpeedMPH, Max Gust SpeedMPH,PrecipitationIn, CloudCover, Events, WindDirDegrees
2013-9-1,102,96,89,84,81,70,84,65,35,29.70,29.65,29.59,7,5,4,12,5,,0.00,,,87
2013-9-2,105,98,90,84,81,68,79,63,31,29.74,29.69,29.65,6,5,4,15,7,,0.00,1,,95
2013-9-3,103,96,89,84,80,72,84,61,32,29.74,29.67,29.62,6,5,4,13,5,,0.00,,,114
2013-9-4,112,100,89,84,79,54,84,59,15,29.68,29.59,29.53,6,5,4,12,7,,0.00,,,154
2013-9-5,102,96,89,84,79,59,79,59,19,29.59,29.54,29.50,6,5,3,14,7,,0.00,,,124
2013-9-6,99,94,88,86,83,77,89,73,50,29.65,29.58,29.53,6,4,3,13,8,,0.00,1,,21
2013-9-7,102,96,89,84,78,64,79,58,27,29.71,29.65,29.62,6,4,3,13,9,,0.00,,,10
2013-9-8,103,96,89,75,72,64,59,48,29,29.71,29.65,29.62,9,8,7,12,6,,0.00,,,1
2013-9-9,102,95,88,81,76,61,75,57,27,29.72,29.67,29.62,7,6,6,16,8,,0.00,1,,123
2013-9-10,99,94,89,82,80,75,79,65,47,29.78,29.69,29.65,6,5,4,10,6,,0.00,1,,48
2013-9-11,101,94,87,81,75,55,75,55,25,29.73,29.66,29.62,6,5,4,12,5,,0.00,,,64
2013-9-12,97,92,86,81,79,77,79,67,49,29.79,29.72,29.65,7,6,4,10,5,,0.00,1,,59
2013-9-13,99,92,86,81,79,75,79,65,44,29.86,29.80,29.74,6,6,6,10,5,,0.00,1,,46
2013-9-14,103,94,84,79,74,59,79,56,24,29.83,29.76,29.71,7,6,4,12,5,,0.00,,,29
2013-9-15,104,94,85,81,70,55,71,48,20,29.75,29.67,29.62,7,6,6,12,5,,0.00,,,54
2013-9-16,107,96,85,79,71,52,75,51,11,29.68,29.62,29.56,7,5,3,10,5,,0.00,,,72
2013-9-17,112,99,86,79,62,37,70,37,4,29.66,29.61,29.56,9,6,4,14,6,,0.00,,,274
2013-9-18,109,98,88,82,72,46,75,51,13,29.69,29.62,29.59,6,6,5,13,7,,0.00,,,285
2013-9-19,104,95,86,81,74,59,75,55,19,29.71,29.66,29.62,7,6,6,12,5,,0.00,,,16
2013-9-20,106,96,85,84,79,59,84,66,22,29.73,29.66,29.62,7,5,4,13,4,,0.00,,,6
2013-9-21,107,98,89,81,68,48,75,43,14,29.68,29.64,29.62,7,7,7,20,11,,0.00,,,327
2013-9-22,110,98,87,81,61,43,75,35,6,29.66,29.61,29.56,7,6,6,21,9,31,0.00,,,313
2013-9-23,104,94,84,81,69,61,75,43,22,29.70,29.65,29.59,7,6,6,15,8,,0.00,,,344
2013-9-24,101,94,88,75,63,49,62,38,10,29.75,29.69,29.65,9,8,6,20,10,26,0.00,1,,312
2013-9-25,101,94,86,81,63,52,75,39,14,29.75,29.70,29.65,9,6,4,23,14,34,0.00,,,324
2013-9-26,97,92,86,68,62,54,52,39,20,29.81,29.74,29.71,9,6,4,20,15,31,0.00,,,324
2013-9-27,96,88,81,73,68,63,66,49,34,29.78,29.72,29.68,7,6,4,23,10,,0.00,1,,319
2013-9-28,95,88,82,75,73,64,74,62,38,29.79,29.74,29.68,9,6,6,14,9,,0.00,1,,348
2013-9-29,94,88,83,75,73,66,74,60,35,29.80,29.73,29.68,9,6,6,12,7,,0.00,1,,15
2013-9-30,95,88,81,75,72,61,74,61,32,29.76,29.70,29.65,9,6,6,12,6,,0.00,1,,354